sensor_id;sensor_type;location;lat;lon;timestamp;temperature;humidity
18717;DHT22;9487;50.892;6.906;2022-09-09T00:02:04;18.60;99.90
18717;DHT22;9487;50.892;6.906;2022-09-09T00:04:33;18.60;99.90
18717;DHT22;9487;50.892;6.906;2022-09-09T00:07:04;18.60;99.90
18717;DHT22;9487;50.892;6.906;2022-09-09T00:09:39;18.50;99.90
18717;DHT22;9487;50.892;6.906;2022-09-09T00:12:11;18.40;99.90
18717;DHT22;9487;50.892;6.906;2022-09-09T00:14:45;18.40;99.90
18717;DHT22;9487;50.892;6.906;2022-09-09T00:17:19;18.30;99.90
18717;DHT22;9487;50.892;6.906;2022-09-09T00:19:50;18.30;99.90
18717;DHT22;9487;50.892;6.906;2022-09-09T00:22:21;18.30;99.90
18717;DHT22;9487;50.892;6.906;2022-09-09T00:24:53;18.20;99.90
18717;DHT22;9487;50.892;6.906;2022-09-09T00:27:25;18.20;99.90
18717;DHT22;9487;50.892;6.906;2022-09-09T00:29:56;18.10;99.90
18717;DHT22;9487;50.892;6.906;2022-09-09T00:32:28;18.10;99.90
18717;DHT22;9487;50.892;6.906;2022-09-09T00:34:59;18.10;99.90
18717;DHT22;9487;50.892;6.906;2022-09-09T00:37:28;18.00;99.90
18717;DHT22;9487;50.892;6.906;2022-09-09T00:40:01;18.00;99.90
18717;DHT22;9487;50.892;6.906;2022-09-09T00:42:38;18.10;99.90
18717;DHT22;9487;50.892;6.906;2022-09-09T00:45:19;18.20;99.90
18717;DHT22;9487;50.892;6.906;2022-09-09T00:47:50;18.20;99.90
18717;DHT22;9487;50.892;6.906;2022-09-09T00:53:21;18.10;99.90
18717;DHT22;9487;50.892;6.906;2022-09-09T00:55:54;18.00;99.90
18717;DHT22;9487;50.892;6.906;2022-09-09T00:58:22;17.90;99.90
18717;DHT22;9487;50.892;6.906;2022-09-09T01:00:52;18.10;99.90
18717;DHT22;9487;50.892;6.906;2022-09-09T01:03:28;18.10;99.90
18717;DHT22;9487;50.892;6.906;2022-09-09T01:06:11;18.20;99.90
18717;DHT22;9487;50.892;6.906;2022-09-09T01:09:07;18.10;99.90
18717;DHT22;9487;50.892;6.906;2022-09-09T01:11:47;18.00;99.90
18717;DHT22;9487;50.892;6.906;2022-09-09T01:14:32;17.90;99.90
18717;DHT22;9487;50.892;6.906;2022-09-09T01:17:05;17.90;99.90
18717;DHT22;9487;50.892;6.906;2022-09-09T01:19:45;17.90;99.90
18717;DHT22;9487;50.892;6.906;2022-09-09T01:22:20;17.80;99.90
18717;DHT22;9487;50.892;6.906;2022-09-09T01:25:13;17.80;99.90
18717;DHT22;9487;50.892;6.906;2022-09-09T01:27:44;17.80;99.90
18717;DHT22;9487;50.892;6.906;2022-09-09T01:30:14;17.80;99.90
18717;DHT22;9487;50.892;6.906;2022-09-09T01:32:43;17.80;99.90
18717;DHT22;9487;50.892;6.906;2022-09-09T01:35:15;17.70;99.90
18717;DHT22;9487;50.892;6.906;2022-09-09T01:37:45;17.70;99.90
18717;DHT22;9487;50.892;6.906;2022-09-09T01:40:12;17.60;99.90
18717;DHT22;9487;50.892;6.906;2022-09-09T01:42:38;17.60;99.90
18717;DHT22;9487;50.892;6.906;2022-09-09T01:45:08;17.50;99.90
18717;DHT22;9487;50.892;6.906;2022-09-09T01:47:35;17.50;99.90
18717;DHT22;9487;50.892;6.906;2022-09-09T01:50:03;17.40;99.90
18717;DHT22;9487;50.892;6.906;2022-09-09T01:52:31;17.40;99.90
18717;DHT22;9487;50.892;6.906;2022-09-09T01:54:59;17.40;99.90
18717;DHT22;9487;50.892;6.906;2022-09-09T01:57:28;17.40;99.90
18717;DHT22;9487;50.892;6.906;2022-09-09T02:00:05;17.40;99.90
18717;DHT22;9487;50.892;6.906;2022-09-09T02:02:37;17.40;99.90
18717;DHT22;9487;50.892;6.906;2022-09-09T02:05:15;17.40;99.90
18717;DHT22;9487;50.892;6.906;2022-09-09T02:07:47;17.40;99.90
18717;DHT22;9487;50.892;6.906;2022-09-09T02:10:23;17.50;99.90
18717;DHT22;9487;50.892;6.906;2022-09-09T02:12:58;17.50;99.90
18717;DHT22;9487;50.892;6.906;2022-09-09T02:15:31;17.50;99.90
18717;DHT22;9487;50.892;6.906;2022-09-09T02:18:01;17.50;99.90
18717;DHT22;9487;50.892;6.906;2022-09-09T02:20:34;17.50;99.90
18717;DHT22;9487;50.892;6.906;2022-09-09T02:23:01;17.50;99.90
18717;DHT22;9487;50.892;6.906;2022-09-09T02:25:29;17.50;99.90
18717;DHT22;9487;50.892;6.906;2022-09-09T02:27:56;17.40;99.90
18717;DHT22;9487;50.892;6.906;2022-09-09T02:30:24;17.40;99.90
18717;DHT22;9487;50.892;6.906;2022-09-09T02:32:54;17.40;99.90
18717;DHT22;9487;50.892;6.906;2022-09-09T02:35:24;17.40;99.90
18717;DHT22;9487;50.892;6.906;2022-09-09T02:37:53;17.50;99.90
18717;DHT22;9487;50.892;6.906;2022-09-09T02:40:22;17.50;99.90
18717;DHT22;9487;50.892;6.906;2022-09-09T02:42:49;17.50;99.90
18717;DHT22;9487;50.892;6.906;2022-09-09T02:45:19;17.60;99.90
18717;DHT22;9487;50.892;6.906;2022-09-09T02:47:50;17.50;99.90
18717;DHT22;9487;50.892;6.906;2022-09-09T02:50:25;17.40;99.90
18717;DHT22;9487;50.892;6.906;2022-09-09T02:53:01;17.40;99.90
18717;DHT22;9487;50.892;6.906;2022-09-09T02:55:35;17.30;99.90
18717;DHT22;9487;50.892;6.906;2022-09-09T02:58:05;17.30;99.90
18717;DHT22;9487;50.892;6.906;2022-09-09T03:00:33;17.30;99.90
18717;DHT22;9487;50.892;6.906;2022-09-09T03:03:02;17.30;99.90
18717;DHT22;9487;50.892;6.906;2022-09-09T03:05:30;17.30;99.90
18717;DHT22;9487;50.892;6.906;2022-09-09T03:07:57;17.20;99.90
18717;DHT22;9487;50.892;6.906;2022-09-09T03:10:24;17.30;99.90
18717;DHT22;9487;50.892;6.906;2022-09-09T03:12:51;17.30;99.90
18717;DHT22;9487;50.892;6.906;2022-09-09T03:15:18;17.30;99.90
18717;DHT22;9487;50.892;6.906;2022-09-09T03:17:45;17.30;99.90
18717;DHT22;9487;50.892;6.906;2022-09-09T03:20:12;17.30;99.90
18717;DHT22;9487;50.892;6.906;2022-09-09T03:22:40;17.20;99.90
18717;DHT22;9487;50.892;6.906;2022-09-09T03:25:09;17.20;99.90
18717;DHT22;9487;50.892;6.906;2022-09-09T03:27:36;17.20;99.90
18717;DHT22;9487;50.892;6.906;2022-09-09T03:30:03;17.30;99.90
18717;DHT22;9487;50.892;6.906;2022-09-09T03:32:30;17.30;99.90
18717;DHT22;9487;50.892;6.906;2022-09-09T03:34:57;17.30;99.90
18717;DHT22;9487;50.892;6.906;2022-09-09T03:37:24;17.20;99.90
18717;DHT22;9487;50.892;6.906;2022-09-09T03:39:52;17.20;99.90
18717;DHT22;9487;50.892;6.906;2022-09-09T03:42:21;17.20;99.90
18717;DHT22;9487;50.892;6.906;2022-09-09T03:44:48;17.30;99.90
18717;DHT22;9487;50.892;6.906;2022-09-09T03:47:16;17.30;99.90
18717;DHT22;9487;50.892;6.906;2022-09-09T03:49:44;17.30;99.90
18717;DHT22;9487;50.892;6.906;2022-09-09T03:52:11;17.30;99.90
18717;DHT22;9487;50.892;6.906;2022-09-09T03:54:38;17.20;99.90
18717;DHT22;9487;50.892;6.906;2022-09-09T03:57:09;17.30;99.90
18717;DHT22;9487;50.892;6.906;2022-09-09T03:59:36;17.30;99.90
18717;DHT22;9487;50.892;6.906;2022-09-09T04:02:04;17.40;99.90
18717;DHT22;9487;50.892;6.906;2022-09-09T04:04:31;17.40;99.90
18717;DHT22;9487;50.892;6.906;2022-09-09T04:06:58;17.40;99.90
18717;DHT22;9487;50.892;6.906;2022-09-09T04:09:24;17.50;99.90
18717;DHT22;9487;50.892;6.906;2022-09-09T04:11:51;17.50;99.90
18717;DHT22;9487;50.892;6.906;2022-09-09T04:14:21;17.50;99.90
18717;DHT22;9487;50.892;6.906;2022-09-09T04:16:48;17.50;99.90
18717;DHT22;9487;50.892;6.906;2022-09-09T04:19:15;17.50;99.90
18717;DHT22;9487;50.892;6.906;2022-09-09T04:21:42;17.50;99.90
18717;DHT22;9487;50.892;6.906;2022-09-09T04:24:08;17.40;99.90
18717;DHT22;9487;50.892;6.906;2022-09-09T04:26:36;17.40;99.90
18717;DHT22;9487;50.892;6.906;2022-09-09T04:29:03;17.40;99.90
18717;DHT22;9487;50.892;6.906;2022-09-09T04:31:32;17.40;99.90
18717;DHT22;9487;50.892;6.906;2022-09-09T04:33:59;17.50;99.90
18717;DHT22;9487;50.892;6.906;2022-09-09T04:36:27;17.40;99.90
18717;DHT22;9487;50.892;6.906;2022-09-09T04:38:54;17.40;99.90
18717;DHT22;9487;50.892;6.906;2022-09-09T04:41:21;17.40;99.90
18717;DHT22;9487;50.892;6.906;2022-09-09T04:43:48;17.50;99.90
18717;DHT22;9487;50.892;6.906;2022-09-09T04:46:15;17.50;99.90
18717;DHT22;9487;50.892;6.906;2022-09-09T04:48:44;17.50;99.90
18717;DHT22;9487;50.892;6.906;2022-09-09T04:51:13;17.60;99.90
18717;DHT22;9487;50.892;6.906;2022-09-09T04:53:40;17.60;99.90
18717;DHT22;9487;50.892;6.906;2022-09-09T04:56:08;17.60;99.90
18717;DHT22;9487;50.892;6.906;2022-09-09T04:58:36;17.60;99.90
18717;DHT22;9487;50.892;6.906;2022-09-09T05:01:07;17.70;99.90
18717;DHT22;9487;50.892;6.906;2022-09-09T05:03:34;17.70;99.90
18717;DHT22;9487;50.892;6.906;2022-09-09T05:06:07;17.70;99.90
18717;DHT22;9487;50.892;6.906;2022-09-09T05:08:35;17.70;99.90
18717;DHT22;9487;50.892;6.906;2022-09-09T05:11:02;17.80;99.90
18717;DHT22;9487;50.892;6.906;2022-09-09T05:13:29;17.80;99.90
18717;DHT22;9487;50.892;6.906;2022-09-09T05:15:57;17.80;99.90
18717;DHT22;9487;50.892;6.906;2022-09-09T05:18:24;17.90;99.90
18717;DHT22;9487;50.892;6.906;2022-09-09T05:20:51;17.90;99.90
18717;DHT22;9487;50.892;6.906;2022-09-09T05:23:19;17.90;99.90
18717;DHT22;9487;50.892;6.906;2022-09-09T05:25:55;17.90;99.90
18717;DHT22;9487;50.892;6.906;2022-09-09T05:28:22;18.30;99.90
18717;DHT22;9487;50.892;6.906;2022-09-09T05:30:55;18.70;99.90
18717;DHT22;9487;50.892;6.906;2022-09-09T05:33:23;19.00;99.90
18717;DHT22;9487;50.892;6.906;2022-09-09T05:35:55;19.20;99.90
18717;DHT22;9487;50.892;6.906;2022-09-09T05:38:24;19.10;99.90
18717;DHT22;9487;50.892;6.906;2022-09-09T05:40:51;18.90;99.90
18717;DHT22;9487;50.892;6.906;2022-09-09T05:43:17;18.80;99.90
18717;DHT22;9487;50.892;6.906;2022-09-09T05:45:45;18.60;99.90
18717;DHT22;9487;50.892;6.906;2022-09-09T05:48:13;18.60;99.90
18717;DHT22;9487;50.892;6.906;2022-09-09T05:50:40;18.60;99.90
18717;DHT22;9487;50.892;6.906;2022-09-09T05:53:08;18.70;99.90
18717;DHT22;9487;50.892;6.906;2022-09-09T05:55:36;18.70;99.90
18717;DHT22;9487;50.892;6.906;2022-09-09T05:58:04;18.70;99.90
18717;DHT22;9487;50.892;6.906;2022-09-09T06:00:30;18.70;99.90
18717;DHT22;9487;50.892;6.906;2022-09-09T06:02:58;18.70;99.90
18717;DHT22;9487;50.892;6.906;2022-09-09T06:05:25;18.70;99.90
18717;DHT22;9487;50.892;6.906;2022-09-09T06:07:54;18.70;99.90
18717;DHT22;9487;50.892;6.906;2022-09-09T06:10:22;18.70;99.90
18717;DHT22;9487;50.892;6.906;2022-09-09T06:12:52;18.70;99.90
18717;DHT22;9487;50.892;6.906;2022-09-09T06:15:19;18.70;99.90
18717;DHT22;9487;50.892;6.906;2022-09-09T06:17:46;18.70;99.90
18717;DHT22;9487;50.892;6.906;2022-09-09T06:20:13;18.80;99.90
18717;DHT22;9487;50.892;6.906;2022-09-09T06:22:40;18.70;99.90
18717;DHT22;9487;50.892;6.906;2022-09-09T06:25:08;18.60;99.90
18717;DHT22;9487;50.892;6.906;2022-09-09T06:27:35;18.70;99.90
18717;DHT22;9487;50.892;6.906;2022-09-09T06:30:04;18.80;99.90
18717;DHT22;9487;50.892;6.906;2022-09-09T06:32:30;18.90;99.90
18717;DHT22;9487;50.892;6.906;2022-09-09T06:35:00;18.90;99.90
18717;DHT22;9487;50.892;6.906;2022-09-09T06:37:27;18.90;99.90
18717;DHT22;9487;50.892;6.906;2022-09-09T06:39:54;18.90;99.90
18717;DHT22;9487;50.892;6.906;2022-09-09T06:42:21;18.90;99.90
18717;DHT22;9487;50.892;6.906;2022-09-09T06:44:48;18.90;99.90
18717;DHT22;9487;50.892;6.906;2022-09-09T06:47:16;18.90;99.90
18717;DHT22;9487;50.892;6.906;2022-09-09T06:49:43;18.80;99.90
18717;DHT22;9487;50.892;6.906;2022-09-09T06:52:10;19.00;99.90
18717;DHT22;9487;50.892;6.906;2022-09-09T06:54:37;19.00;99.90
18717;DHT22;9487;50.892;6.906;2022-09-09T06:57:04;19.10;99.90
18717;DHT22;9487;50.892;6.906;2022-09-09T06:59:32;19.10;99.90
18717;DHT22;9487;50.892;6.906;2022-09-09T07:01:59;19.20;99.90
18717;DHT22;9487;50.892;6.906;2022-09-09T07:04:27;19.30;99.90
18717;DHT22;9487;50.892;6.906;2022-09-09T07:06:54;19.40;99.90
18717;DHT22;9487;50.892;6.906;2022-09-09T07:09:21;19.60;99.90
18717;DHT22;9487;50.892;6.906;2022-09-09T07:11:50;19.70;99.90
18717;DHT22;9487;50.892;6.906;2022-09-09T07:14:18;19.70;99.90
18717;DHT22;9487;50.892;6.906;2022-09-09T07:16:46;19.70;99.90
18717;DHT22;9487;50.892;6.906;2022-09-09T07:19:13;19.90;99.90
18717;DHT22;9487;50.892;6.906;2022-09-09T07:21:42;20.00;99.90
18717;DHT22;9487;50.892;6.906;2022-09-09T07:24:10;20.00;99.90
18717;DHT22;9487;50.892;6.906;2022-09-09T07:26:38;20.10;99.90
18717;DHT22;9487;50.892;6.906;2022-09-09T07:29:05;20.10;99.90
18717;DHT22;9487;50.892;6.906;2022-09-09T07:31:32;20.20;99.90
18717;DHT22;9487;50.892;6.906;2022-09-09T07:34:01;20.30;99.90
18717;DHT22;9487;50.892;6.906;2022-09-09T07:36:30;20.30;99.90
18717;DHT22;9487;50.892;6.906;2022-09-09T07:39:00;20.50;99.90
18717;DHT22;9487;50.892;6.906;2022-09-09T07:41:30;20.50;99.90
18717;DHT22;9487;50.892;6.906;2022-09-09T07:43:57;20.50;99.90
18717;DHT22;9487;50.892;6.906;2022-09-09T07:46:25;20.70;99.90
18717;DHT22;9487;50.892;6.906;2022-09-09T07:48:54;20.80;99.90
18717;DHT22;9487;50.892;6.906;2022-09-09T07:51:23;20.60;99.90
18717;DHT22;9487;50.892;6.906;2022-09-09T07:53:52;20.40;99.90
18717;DHT22;9487;50.892;6.906;2022-09-09T07:56:21;20.40;99.90
18717;DHT22;9487;50.892;6.906;2022-09-09T07:58:49;20.30;99.90
18717;DHT22;9487;50.892;6.906;2022-09-09T08:01:17;20.20;99.90
18717;DHT22;9487;50.892;6.906;2022-09-09T08:03:45;20.10;99.90
18717;DHT22;9487;50.892;6.906;2022-09-09T08:06:13;20.10;99.90
18717;DHT22;9487;50.892;6.906;2022-09-09T08:08:40;20.10;99.90
18717;DHT22;9487;50.892;6.906;2022-09-09T08:11:10;20.00;99.90
18717;DHT22;9487;50.892;6.906;2022-09-09T08:13:39;19.90;99.90
18717;DHT22;9487;50.892;6.906;2022-09-09T08:16:08;19.90;99.90
18717;DHT22;9487;50.892;6.906;2022-09-09T08:18:35;20.00;99.90
18717;DHT22;9487;50.892;6.906;2022-09-09T08:21:08;20.00;99.90
18717;DHT22;9487;50.892;6.906;2022-09-09T08:23:37;20.10;99.90
18717;DHT22;9487;50.892;6.906;2022-09-09T08:26:06;20.20;99.90
18717;DHT22;9487;50.892;6.906;2022-09-09T08:28:34;20.30;99.90
18717;DHT22;9487;50.892;6.906;2022-09-09T08:31:10;20.30;99.90
18717;DHT22;9487;50.892;6.906;2022-09-09T08:33:38;20.50;99.90
18717;DHT22;9487;50.892;6.906;2022-09-09T08:36:06;20.50;99.90
18717;DHT22;9487;50.892;6.906;2022-09-09T08:38:35;20.50;99.90
18717;DHT22;9487;50.892;6.906;2022-09-09T08:41:19;20.50;99.90
18717;DHT22;9487;50.892;6.906;2022-09-09T08:43:50;20.50;99.90
18717;DHT22;9487;50.892;6.906;2022-09-09T08:46:29;20.50;99.90
18717;DHT22;9487;50.892;6.906;2022-09-09T08:49:01;20.50;99.90
18717;DHT22;9487;50.892;6.906;2022-09-09T08:51:32;20.40;99.90
18717;DHT22;9487;50.892;6.906;2022-09-09T08:54:02;20.50;99.90
18717;DHT22;9487;50.892;6.906;2022-09-09T08:56:31;20.60;99.90
18717;DHT22;9487;50.892;6.906;2022-09-09T08:59:01;20.60;99.90
18717;DHT22;9487;50.892;6.906;2022-09-09T09:02:00;20.70;99.90
18717;DHT22;9487;50.892;6.906;2022-09-09T09:04:38;20.80;99.90
18717;DHT22;9487;50.892;6.906;2022-09-09T09:07:18;20.80;99.90
18717;DHT22;9487;50.892;6.906;2022-09-09T09:09:57;20.80;99.90
18717;DHT22;9487;50.892;6.906;2022-09-09T09:12:35;20.90;99.90
18717;DHT22;9487;50.892;6.906;2022-09-09T09:15:14;20.90;99.90
18717;DHT22;9487;50.892;6.906;2022-09-09T09:17:44;20.80;99.90
18717;DHT22;9487;50.892;6.906;2022-09-09T09:20:12;20.70;99.90
18717;DHT22;9487;50.892;6.906;2022-09-09T09:22:47;20.60;99.90
18717;DHT22;9487;50.892;6.906;2022-09-09T09:25:18;20.50;99.90
18717;DHT22;9487;50.892;6.906;2022-09-09T09:27:52;20.50;99.90
18717;DHT22;9487;50.892;6.906;2022-09-09T09:30:26;20.40;99.90
18717;DHT22;9487;50.892;6.906;2022-09-09T09:32:58;20.30;99.90
18717;DHT22;9487;50.892;6.906;2022-09-09T09:35:26;20.30;99.90
18717;DHT22;9487;50.892;6.906;2022-09-09T09:37:53;20.30;99.90
18717;DHT22;9487;50.892;6.906;2022-09-09T09:40:21;20.40;99.90
18717;DHT22;9487;50.892;6.906;2022-09-09T09:42:51;20.40;99.90
18717;DHT22;9487;50.892;6.906;2022-09-09T09:45:26;20.50;99.90
18717;DHT22;9487;50.892;6.906;2022-09-09T09:48:03;20.60;99.90
18717;DHT22;9487;50.892;6.906;2022-09-09T09:50:32;20.50;99.90
18717;DHT22;9487;50.892;6.906;2022-09-09T09:53:02;20.50;99.90
18717;DHT22;9487;50.892;6.906;2022-09-09T09:55:31;20.60;99.90
18717;DHT22;9487;50.892;6.906;2022-09-09T09:58:04;20.60;99.90
18717;DHT22;9487;50.892;6.906;2022-09-09T10:00:32;20.60;99.90
18717;DHT22;9487;50.892;6.906;2022-09-09T10:03:17;20.70;99.90
18717;DHT22;9487;50.892;6.906;2022-09-09T10:05:46;20.70;99.90
18717;DHT22;9487;50.892;6.906;2022-09-09T10:08:15;20.80;99.90
18717;DHT22;9487;50.892;6.906;2022-09-09T10:10:54;20.80;99.90
18717;DHT22;9487;50.892;6.906;2022-09-09T10:13:28;20.90;99.90
18717;DHT22;9487;50.892;6.906;2022-09-09T10:16:07;20.80;99.90
18717;DHT22;9487;50.892;6.906;2022-09-09T10:18:47;20.80;99.90
18717;DHT22;9487;50.892;6.906;2022-09-09T10:21:24;20.70;99.90
18717;DHT22;9487;50.892;6.906;2022-09-09T10:24:15;20.60;99.90
18717;DHT22;9487;50.892;6.906;2022-09-09T10:26:47;20.70;99.90
18717;DHT22;9487;50.892;6.906;2022-09-09T10:29:44;20.80;99.90
18717;DHT22;9487;50.892;6.906;2022-09-09T10:32:36;20.80;99.90
18717;DHT22;9487;50.892;6.906;2022-09-09T10:35:10;20.80;99.90
18717;DHT22;9487;50.892;6.906;2022-09-09T10:37:49;20.90;99.90
18717;DHT22;9487;50.892;6.906;2022-09-09T10:40:26;21.00;99.90
18717;DHT22;9487;50.892;6.906;2022-09-09T10:43:01;21.00;99.90
18717;DHT22;9487;50.892;6.906;2022-09-09T10:45:38;21.10;99.90
18717;DHT22;9487;50.892;6.906;2022-09-09T10:48:24;21.20;99.90
18717;DHT22;9487;50.892;6.906;2022-09-09T10:51:06;21.50;99.90
18717;DHT22;9487;50.892;6.906;2022-09-09T10:53:46;21.60;99.90
18717;DHT22;9487;50.892;6.906;2022-09-09T10:56:17;21.80;99.90
18717;DHT22;9487;50.892;6.906;2022-09-09T10:58:48;21.80;99.90
18717;DHT22;9487;50.892;6.906;2022-09-09T11:01:20;21.60;99.90
18717;DHT22;9487;50.892;6.906;2022-09-09T11:03:54;21.70;99.90
18717;DHT22;9487;50.892;6.906;2022-09-09T11:06:28;21.70;99.90
18717;DHT22;9487;50.892;6.906;2022-09-09T11:08:57;21.90;99.90
18717;DHT22;9487;50.892;6.906;2022-09-09T11:11:29;22.00;99.90
18717;DHT22;9487;50.892;6.906;2022-09-09T11:14:02;21.90;99.90
18717;DHT22;9487;50.892;6.906;2022-09-09T11:16:35;21.70;99.90
18717;DHT22;9487;50.892;6.906;2022-09-09T11:19:13;21.40;99.90
18717;DHT22;9487;50.892;6.906;2022-09-09T11:21:46;21.20;99.90
18717;DHT22;9487;50.892;6.906;2022-09-09T11:24:19;21.20;99.90
18717;DHT22;9487;50.892;6.906;2022-09-09T11:26:52;21.20;99.90
18717;DHT22;9487;50.892;6.906;2022-09-09T11:29:46;21.30;99.90
18717;DHT22;9487;50.892;6.906;2022-09-09T11:32:28;21.30;99.90
18717;DHT22;9487;50.892;6.906;2022-09-09T11:35:11;21.30;99.90
18717;DHT22;9487;50.892;6.906;2022-09-09T11:37:57;21.40;99.90
18717;DHT22;9487;50.892;6.906;2022-09-09T11:40:30;21.40;99.90
18717;DHT22;9487;50.892;6.906;2022-09-09T11:43:04;21.60;99.90
18717;DHT22;9487;50.892;6.906;2022-09-09T11:45:33;21.70;99.90
18717;DHT22;9487;50.892;6.906;2022-09-09T11:48:02;21.70;99.90
18717;DHT22;9487;50.892;6.906;2022-09-09T11:50:33;21.70;99.90
18717;DHT22;9487;50.892;6.906;2022-09-09T11:53:17;21.70;99.90
18717;DHT22;9487;50.892;6.906;2022-09-09T11:55:46;21.70;99.90
18717;DHT22;9487;50.892;6.906;2022-09-09T11:58:17;21.60;99.90
18717;DHT22;9487;50.892;6.906;2022-09-09T12:00:46;21.70;99.90
18717;DHT22;9487;50.892;6.906;2022-09-09T12:03:32;21.60;99.90
18717;DHT22;9487;50.892;6.906;2022-09-09T12:06:10;21.40;99.90
18717;DHT22;9487;50.892;6.906;2022-09-09T12:08:41;21.30;99.90
18717;DHT22;9487;50.892;6.906;2022-09-09T12:11:09;21.40;99.90
18717;DHT22;9487;50.892;6.906;2022-09-09T12:13:36;21.30;99.90
18717;DHT22;9487;50.892;6.906;2022-09-09T12:16:03;21.20;99.90
18717;DHT22;9487;50.892;6.906;2022-09-09T12:18:33;21.20;99.90
18717;DHT22;9487;50.892;6.906;2022-09-09T12:21:06;21.30;99.90
18717;DHT22;9487;50.892;6.906;2022-09-09T12:23:44;21.40;99.90
18717;DHT22;9487;50.892;6.906;2022-09-09T12:26:30;21.50;99.90
18717;DHT22;9487;50.892;6.906;2022-09-09T12:29:10;21.70;99.90
18717;DHT22;9487;50.892;6.906;2022-09-09T12:31:45;21.80;99.90
18717;DHT22;9487;50.892;6.906;2022-09-09T12:34:15;21.70;99.90
18717;DHT22;9487;50.892;6.906;2022-09-09T12:36:44;21.70;99.90
18717;DHT22;9487;50.892;6.906;2022-09-09T12:39:21;21.70;99.90
18717;DHT22;9487;50.892;6.906;2022-09-09T12:41:53;21.50;99.90
18717;DHT22;9487;50.892;6.906;2022-09-09T12:44:23;21.40;99.90
18717;DHT22;9487;50.892;6.906;2022-09-09T12:46:51;21.40;99.90
18717;DHT22;9487;50.892;6.906;2022-09-09T12:49:29;21.50;99.90
18717;DHT22;9487;50.892;6.906;2022-09-09T12:52:02;21.60;99.90
18717;DHT22;9487;50.892;6.906;2022-09-09T12:54:33;21.90;99.90
18717;DHT22;9487;50.892;6.906;2022-09-09T12:57:02;22.00;99.90
18717;DHT22;9487;50.892;6.906;2022-09-09T12:59:36;22.10;99.90
18717;DHT22;9487;50.892;6.906;2022-09-09T13:02:16;22.10;99.90
18717;DHT22;9487;50.892;6.906;2022-09-09T13:04:44;22.10;99.90
18717;DHT22;9487;50.892;6.906;2022-09-09T13:07:12;22.00;99.90
18717;DHT22;9487;50.892;6.906;2022-09-09T13:09:43;22.10;99.90
18717;DHT22;9487;50.892;6.906;2022-09-09T13:12:14;22.20;99.90
18717;DHT22;9487;50.892;6.906;2022-09-09T13:14:43;22.40;99.90
18717;DHT22;9487;50.892;6.906;2022-09-09T13:17:19;22.50;99.90
18717;DHT22;9487;50.892;6.906;2022-09-09T13:19:47;22.70;99.90
18717;DHT22;9487;50.892;6.906;2022-09-09T13:22:21;22.70;99.90
18717;DHT22;9487;50.892;6.906;2022-09-09T13:24:59;22.60;99.90
18717;DHT22;9487;50.892;6.906;2022-09-09T13:27:30;22.40;99.90
18717;DHT22;9487;50.892;6.906;2022-09-09T13:29:57;22.40;99.90
18717;DHT22;9487;50.892;6.906;2022-09-09T13:32:26;22.40;99.90
18717;DHT22;9487;50.892;6.906;2022-09-09T13:34:54;22.50;99.90
18717;DHT22;9487;50.892;6.906;2022-09-09T13:37:24;22.40;99.90
18717;DHT22;9487;50.892;6.906;2022-09-09T13:39:54;22.50;99.90
18717;DHT22;9487;50.892;6.906;2022-09-09T13:42:24;22.50;99.90
18717;DHT22;9487;50.892;6.906;2022-09-09T13:44:52;22.60;99.90
18717;DHT22;9487;50.892;6.906;2022-09-09T13:47:21;22.70;99.90
18717;DHT22;9487;50.892;6.906;2022-09-09T13:49:48;22.60;99.90
18717;DHT22;9487;50.892;6.906;2022-09-09T13:52:17;22.50;99.90
18717;DHT22;9487;50.892;6.906;2022-09-09T13:54:47;22.60;99.90
18717;DHT22;9487;50.892;6.906;2022-09-09T13:57:18;22.40;99.90
18717;DHT22;9487;50.892;6.906;2022-09-09T13:59:46;22.30;99.90
18717;DHT22;9487;50.892;6.906;2022-09-09T14:02:13;22.30;99.90
18717;DHT22;9487;50.892;6.906;2022-09-09T14:04:40;22.10;99.90
18717;DHT22;9487;50.892;6.906;2022-09-09T14:07:09;21.90;99.90
18717;DHT22;9487;50.892;6.906;2022-09-09T14:09:38;21.90;99.90
18717;DHT22;9487;50.892;6.906;2022-09-09T14:12:05;21.80;99.90
18717;DHT22;9487;50.892;6.906;2022-09-09T14:14:33;21.90;99.90
18717;DHT22;9487;50.892;6.906;2022-09-09T14:17:00;21.80;99.90
18717;DHT22;9487;50.892;6.906;2022-09-09T14:19:27;21.70;99.90
18717;DHT22;9487;50.892;6.906;2022-09-09T14:21:54;21.70;99.90
18717;DHT22;9487;50.892;6.906;2022-09-09T14:24:20;21.60;99.90
18717;DHT22;9487;50.892;6.906;2022-09-09T14:26:47;21.60;99.90
18717;DHT22;9487;50.892;6.906;2022-09-09T14:29:14;21.50;99.90
18717;DHT22;9487;50.892;6.906;2022-09-09T14:31:42;21.40;99.90
18717;DHT22;9487;50.892;6.906;2022-09-09T14:34:09;21.30;99.90
18717;DHT22;9487;50.892;6.906;2022-09-09T14:36:36;21.20;99.90
18717;DHT22;9487;50.892;6.906;2022-09-09T14:39:03;20.90;99.90
18717;DHT22;9487;50.892;6.906;2022-09-09T14:41:30;20.40;99.90
18717;DHT22;9487;50.892;6.906;2022-09-09T14:43:57;19.30;99.90
18717;DHT22;9487;50.892;6.906;2022-09-09T14:46:25;19.10;99.90
18717;DHT22;9487;50.892;6.906;2022-09-09T14:48:53;19.10;99.90
18717;DHT22;9487;50.892;6.906;2022-09-09T14:51:22;19.00;99.90
18717;DHT22;9487;50.892;6.906;2022-09-09T14:53:52;19.00;99.90
18717;DHT22;9487;50.892;6.906;2022-09-09T14:56:21;19.00;99.90
18717;DHT22;9487;50.892;6.906;2022-09-09T14:58:48;19.10;99.90
18717;DHT22;9487;50.892;6.906;2022-09-09T15:01:18;19.20;99.90
18717;DHT22;9487;50.892;6.906;2022-09-09T15:03:49;19.40;99.90
18717;DHT22;9487;50.892;6.906;2022-09-09T15:06:18;19.40;99.90
18717;DHT22;9487;50.892;6.906;2022-09-09T15:08:46;19.50;99.90
18717;DHT22;9487;50.892;6.906;2022-09-09T15:11:14;19.60;99.90
18717;DHT22;9487;50.892;6.906;2022-09-09T15:13:42;19.70;99.90
18717;DHT22;9487;50.892;6.906;2022-09-09T15:16:11;19.80;99.90
18717;DHT22;9487;50.892;6.906;2022-09-09T15:18:38;19.90;99.90
18717;DHT22;9487;50.892;6.906;2022-09-09T15:21:08;19.90;99.90
18717;DHT22;9487;50.892;6.906;2022-09-09T15:23:37;19.90;99.90
18717;DHT22;9487;50.892;6.906;2022-09-09T15:26:04;19.80;99.90
18717;DHT22;9487;50.892;6.906;2022-09-09T15:28:32;19.70;99.90
18717;DHT22;9487;50.892;6.906;2022-09-09T15:31:06;19.70;99.90
18717;DHT22;9487;50.892;6.906;2022-09-09T15:33:33;19.60;99.90
18717;DHT22;9487;50.892;6.906;2022-09-09T15:36:12;19.50;99.90
18717;DHT22;9487;50.892;6.906;2022-09-09T15:38:41;19.50;99.90
18717;DHT22;9487;50.892;6.906;2022-09-09T15:41:09;19.50;99.90
18717;DHT22;9487;50.892;6.906;2022-09-09T15:43:36;19.50;99.90
18717;DHT22;9487;50.892;6.906;2022-09-09T15:46:21;19.70;99.90
18717;DHT22;9487;50.892;6.906;2022-09-09T15:48:50;19.70;99.90
18717;DHT22;9487;50.892;6.906;2022-09-09T15:51:17;19.30;99.90
18717;DHT22;9487;50.892;6.906;2022-09-09T15:53:46;19.00;99.90
18717;DHT22;9487;50.892;6.906;2022-09-09T15:56:13;18.80;99.90
18717;DHT22;9487;50.892;6.906;2022-09-09T15:58:40;18.60;99.90
18717;DHT22;9487;50.892;6.906;2022-09-09T16:01:08;18.50;99.90
18717;DHT22;9487;50.892;6.906;2022-09-09T16:03:37;18.50;99.90
18717;DHT22;9487;50.892;6.906;2022-09-09T16:06:05;18.70;99.90
18717;DHT22;9487;50.892;6.906;2022-09-09T16:08:32;18.80;99.90
18717;DHT22;9487;50.892;6.906;2022-09-09T16:11:06;19.20;99.90